Kezdőlap
METAR-TAF:

METAR-TAF

Repülőterek :

Tarvisio, Olaszország

földrajzi szélesség: 46-30N, földrajzi hosszúság: 013-35E, magasság: 777 m

Jelenlegi meteorológiai megfigyelések

A jelentés 1 órával és 31 perccel ezelõtt készült, 17:55 UTC
Szélcsend
Hőmérséklet 3°C
Páratartalom 87%
Légköri nyomás 1018 hPa
Látótávolság 10 km, vagy több
Szórványos felhőzet 2500 lábon

METAR: LIVO 191755Z 00000KT 9999 SCT025 03/01 Q1018 RETS RMK SCT VIS MIN 9999

Idő: 20:26 (19:26 UTC)


TAF: hiányzik

Meteorológiai megfigyelések és előrejelzések több, mint 4000 repülőtéren (METAR és TAF jelentéseket).

A térképen piros és sárga pontok jelzik az elérhető meteorológiai állomásokat.

Mozgassa az egeret a pont fölött, hogy megjelenjen az állomás neve.

Azután kattintson az időjárási megfigyelések és előrejelzések megtekintéséhez.

A térkép megváltoztatása: kattintson a fekete keresztel jelölt zöld gombra ráközelítéshez, a vonallal jelölt zöld gombra távolításhoz, vagy a zöld nyilakra a szomszédos térképek eléréséhez.


METAR-TAF: